Serian, Malaysia
Current Conditions -  °F | °C
As of 6:00 PM on Sunday 23 Nov 2014 (Local Time) from WBGG Reporting Station
Broken Clouds Broken Clouds  
Wind Chill: 82°   Ceiling: 30000
Heat Index: 89°   Visibility: 6mi
Dew Point: 75°   Wind: 9mph
Humidity: 79%   Direction: 320°NW
Pressure: 29.74"   Gusts: NA
Location:  1.17°N, 110.56°E
Report Text: WBGG 231000Z 32008KT 9999 FEW015CB SCT150 BKN300 28/24 Q1007 NOSIG
Loading
Personal Weather Stations






























Interactive Weather Map New forecast layout! Learn more

10-Day Weather Forecast

Advertisements
Track Severe Weather on mobile